createdAt,value
2017-09-19T00:00:29.407Z,4.66
2017-09-19T00:01:29.383Z,4.70
2017-09-19T00:02:29.368Z,4.66
2017-09-19T00:03:29.352Z,4.65
2017-09-19T00:04:29.443Z,4.75
2017-09-19T00:05:29.326Z,4.69
2017-09-19T00:06:29.310Z,4.82
2017-09-19T00:07:29.295Z,4.82
2017-09-19T00:08:29.272Z,4.78
2017-09-19T00:09:29.257Z,4.72
2017-09-19T00:10:29.340Z,4.67
2017-09-19T00:11:29.226Z,4.69
2017-09-19T00:12:29.209Z,4.73
2017-09-19T00:13:29.192Z,4.60
2017-09-19T00:14:29.177Z,4.66
2017-09-19T00:15:29.161Z,4.67
2017-09-19T00:16:29.244Z,4.70
2017-09-19T00:17:29.134Z,4.72
2017-09-19T00:18:29.113Z,4.78
2017-09-19T00:19:29.103Z,4.78
2017-09-19T00:20:29.081Z,4.80
2017-09-19T00:21:29.070Z,4.82
2017-09-19T00:22:29.150Z,4.84
2017-09-19T00:23:29.032Z,4.86
2017-09-19T00:24:29.023Z,4.86
2017-09-19T00:25:29.002Z,4.99
2017-09-19T00:26:28.986Z,4.96
2017-09-19T00:27:28.970Z,4.92
2017-09-19T00:28:29.059Z,4.86
2017-09-19T00:29:28.938Z,4.78
2017-09-19T00:30:28.921Z,4.78
2017-09-19T00:31:28.911Z,4.77
2017-09-19T00:32:28.890Z,4.80
2017-09-19T00:33:28.874Z,4.85
2017-09-19T00:34:28.960Z,4.73
2017-09-19T00:35:28.847Z,4.70
2017-09-19T00:36:28.826Z,4.73
2017-09-19T00:37:28.815Z,4.77
2017-09-19T00:38:28.799Z,4.70
2017-09-19T00:39:28.784Z,4.78
2017-09-19T00:40:28.863Z,4.84
2017-09-19T00:41:28.748Z,4.80
2017-09-19T00:42:28.729Z,4.82
2017-09-19T00:43:28.715Z,4.84
2017-09-19T00:44:28.704Z,4.86
2017-09-19T00:45:28.689Z,4.89
2017-09-19T00:46:28.773Z,4.99
2017-09-19T00:47:28.657Z,4.89
2017-09-19T00:48:28.637Z,4.99
2017-09-19T00:49:28.620Z,4.86
2017-09-19T00:50:28.605Z,4.77
2017-09-19T00:51:28.618Z,4.80
2017-09-19T00:52:28.678Z,4.80
2017-09-19T00:53:28.555Z,4.67
2017-09-19T00:54:28.540Z,4.65
2017-09-19T00:55:28.523Z,4.70
2017-09-19T00:56:28.509Z,4.67
2017-09-19T00:57:28.492Z,4.69
2017-09-19T00:58:28.575Z,4.66
2017-09-19T00:59:28.459Z,4.67
2017-09-19T01:00:28.444Z,4.72
2017-09-19T01:01:28.427Z,4.66
2017-09-19T01:02:28.411Z,4.66
2017-09-19T01:03:28.398Z,4.66
2017-09-19T01:04:28.485Z,4.75
2017-09-19T01:05:28.363Z,4.67
2017-09-19T01:06:28.346Z,4.72
2017-09-19T01:07:28.331Z,4.66
2017-09-19T01:08:28.315Z,4.72
2017-09-19T01:09:28.299Z,4.69
2017-09-19T01:10:28.387Z,4.75
2017-09-19T01:11:28.267Z,4.75
2017-09-19T01:12:28.256Z,4.69
2017-09-19T01:13:28.233Z,4.69
2017-09-19T01:14:28.223Z,4.70
2017-09-19T01:15:28.201Z,4.75
2017-09-19T01:16:28.287Z,4.72
2017-09-19T01:17:28.175Z,4.72
2017-09-19T01:18:28.159Z,4.62
2017-09-19T01:19:28.143Z,4.73
2017-09-19T01:20:28.126Z,4.69
2017-09-19T01:21:28.103Z,4.66
2017-09-19T01:22:28.188Z,4.62
2017-09-19T01:23:28.078Z,4.58
2017-09-19T01:24:28.056Z,4.63
2017-09-19T01:25:28.039Z,4.60
2017-09-19T01:26:28.024Z,4.47
2017-09-19T01:27:28.008Z,4.62
2017-09-19T01:28:28.097Z,4.59
2017-09-19T01:29:27.980Z,4.66
2017-09-19T01:30:27.959Z,4.51
2017-09-19T01:31:27.948Z,4.54
2017-09-19T01:32:27.926Z,4.48
2017-09-19T01:33:27.909Z,4.54
2017-09-19T01:34:27.993Z,4.51
2017-09-19T01:35:27.877Z,4.52
2017-09-19T01:36:27.861Z,4.47
2017-09-19T01:37:27.845Z,4.51
2017-09-19T01:38:27.834Z,4.44
2017-09-19T01:39:27.813Z,4.48
2017-09-19T01:40:27.902Z,4.48
2017-09-19T01:41:27.784Z,4.48
2017-09-19T01:42:27.764Z,4.50
2017-09-19T01:43:27.748Z,4.54
2017-09-19T01:44:27.732Z,4.55
2017-09-19T01:45:27.713Z,4.52
2017-09-19T01:46:27.799Z,4.59
2017-09-19T01:47:27.682Z,4.50
2017-09-19T01:48:27.666Z,4.51
2017-09-19T01:49:27.654Z,4.62
2017-09-19T01:50:27.636Z,4.51
2017-09-19T01:51:27.621Z,4.62
2017-09-19T01:52:27.703Z,4.58
2017-09-19T01:53:27.588Z,4.52
2017-09-19T01:54:27.568Z,4.62
2017-09-19T01:55:27.551Z,4.59
2017-09-19T01:56:27.536Z,4.62
2017-09-19T01:57:27.519Z,4.54
2017-09-19T01:58:27.603Z,4.52
2017-09-19T01:59:27.486Z,4.50
2017-09-19T02:00:27.472Z,4.51
2017-09-19T02:01:27.453Z,4.63
2017-09-19T02:02:27.438Z,4.54
2017-09-19T02:03:27.421Z,4.51
2017-09-19T02:04:27.507Z,4.50
2017-09-19T02:05:27.390Z,4.52
2017-09-19T02:06:27.374Z,4.51
2017-09-19T02:07:27.357Z,4.52
2017-09-19T02:08:27.347Z,4.47
2017-09-19T02:09:27.325Z,4.47
2017-09-19T02:10:27.407Z,4.54
2017-09-19T02:11:27.297Z,4.58
2017-09-19T02:12:27.276Z,4.54
2017-09-19T02:13:27.264Z,4.50
2017-09-19T02:14:27.242Z,4.50
2017-09-19T02:15:27.237Z,4.52
2017-09-19T02:16:27.312Z,4.54
2017-09-19T02:17:27.199Z,4.50
2017-09-19T02:18:27.178Z,4.50
2017-09-19T02:19:27.163Z,4.60
2017-09-19T02:20:27.146Z,4.50
2017-09-19T02:21:27.130Z,4.50
2017-09-19T02:22:27.218Z,4.54
2017-09-19T02:23:27.096Z,4.59
2017-09-19T02:24:27.081Z,4.55
2017-09-19T02:25:27.066Z,4.55
2017-09-19T02:26:27.047Z,4.52
2017-09-19T02:27:27.037Z,4.50
2017-09-19T02:28:27.121Z,4.45
2017-09-19T02:29:26.999Z,4.45
2017-09-19T02:30:27.082Z,4.41
2017-09-19T02:31:26.968Z,4.36
2017-09-19T02:32:26.951Z,4.33
2017-09-19T02:33:26.932Z,4.33
2017-09-19T02:34:27.017Z,4.32
2017-09-19T02:35:26.907Z,4.50
2017-09-19T02:36:26.886Z,4.42
2017-09-19T02:37:26.866Z,4.37
2017-09-19T02:38:26.858Z,4.41
2017-09-19T02:39:26.834Z,4.36
2017-09-19T02:40:26.918Z,4.36
2017-09-19T02:41:26.817Z,4.33
2017-09-19T02:42:26.785Z,4.37
2017-09-19T02:43:26.768Z,4.34
2017-09-19T02:44:26.754Z,4.29
2017-09-19T02:45:26.736Z,4.30
2017-09-19T02:46:26.820Z,4.41
2017-09-19T02:47:26.702Z,4.26
2017-09-19T02:48:26.686Z,4.27
2017-09-19T02:49:26.669Z,4.27
2017-09-19T02:50:26.657Z,4.34
2017-09-19T02:51:26.637Z,4.26
2017-09-19T02:52:26.725Z,4.29
2017-09-19T02:53:26.606Z,4.26
2017-09-19T02:54:26.592Z,4.23
2017-09-19T02:55:26.570Z,4.22
2017-09-19T02:56:26.553Z,4.22
2017-09-19T02:57:26.536Z,4.26
2017-09-19T02:58:26.618Z,4.24
2017-09-19T02:59:26.513Z,4.23
2017-09-19T03:00:26.491Z,4.11
2017-09-19T03:01:26.468Z,4.11
2017-09-19T03:02:26.451Z,4.18
2017-09-19T03:03:26.435Z,4.11
2017-09-19T03:04:26.525Z,4.06
2017-09-19T03:05:26.403Z,4.15
2017-09-19T03:06:26.386Z,4.15
2017-09-19T03:07:26.469Z,4.12
2017-09-19T03:08:26.353Z,4.12
2017-09-19T03:09:26.334Z,4.14
2017-09-19T03:10:26.424Z,4.09
2017-09-19T03:11:26.303Z,4.14
2017-09-19T03:12:26.293Z,4.14
2017-09-19T03:13:26.267Z,4.15
2017-09-19T03:14:26.260Z,4.15
2017-09-19T03:15:26.235Z,4.06
2017-09-19T03:16:26.323Z,4.12
2017-09-19T03:17:26.200Z,4.11
2017-09-19T03:18:26.184Z,4.18
2017-09-19T03:19:26.269Z,4.09
2017-09-19T03:20:26.153Z,4.15
2017-09-19T03:21:26.135Z,4.18
2017-09-19T03:22:26.220Z,4.12
2017-09-19T03:23:26.100Z,4.12
2017-09-19T03:24:26.085Z,4.15
2017-09-19T03:25:26.066Z,4.08
2017-09-19T03:26:26.051Z,4.06
2017-09-19T03:27:26.035Z,4.09
2017-09-19T03:28:26.124Z,4.06
2017-09-19T03:29:26.006Z,4.11
2017-09-19T03:30:25.984Z,4.12
2017-09-19T03:31:25.967Z,4.08
2017-09-19T03:32:25.950Z,4.06
2017-09-19T03:33:25.935Z,3.94
2017-09-19T03:34:26.022Z,3.97
2017-09-19T03:35:25.899Z,4.08
2017-09-19T03:36:25.883Z,4.06
2017-09-19T03:37:25.865Z,3.88
2017-09-19T03:38:25.849Z,4.04
2017-09-19T03:39:25.834Z,4.00
2017-09-19T03:40:25.922Z,4.00
2017-09-19T03:41:25.799Z,4.02
2017-09-19T03:42:25.788Z,4.00
2017-09-19T03:43:25.766Z,3.98
2017-09-19T03:44:25.755Z,3.97
2017-09-19T03:45:25.731Z,4.00
2017-09-19T03:46:25.816Z,3.91
2017-09-19T03:47:25.698Z,3.98
2017-09-19T03:48:25.683Z,3.98
2017-09-19T03:49:25.666Z,3.91
2017-09-19T03:50:25.649Z,3.94
2017-09-19T03:51:25.632Z,4.05
2017-09-19T03:52:25.716Z,3.98
2017-09-19T03:53:25.634Z,3.90
2017-09-19T03:54:25.582Z,3.93
2017-09-19T03:55:25.564Z,3.94
2017-09-19T03:56:25.547Z,3.90
2017-09-19T03:57:25.530Z,3.94
2017-09-19T03:58:25.614Z,3.86
2017-09-19T03:59:25.502Z,3.90
2017-09-19T04:00:25.486Z,3.84
2017-09-19T04:01:25.464Z,3.84
2017-09-19T04:02:25.447Z,3.84
2017-09-19T04:03:25.430Z,3.76
2017-09-19T04:04:25.511Z,3.84
2017-09-19T04:05:25.394Z,3.73
2017-09-19T04:06:25.377Z,3.76
2017-09-19T04:07:25.362Z,3.69
2017-09-19T04:08:25.349Z,3.73
2017-09-19T04:09:25.327Z,3.78
2017-09-19T04:10:25.408Z,3.69
2017-09-19T04:11:25.298Z,3.75
2017-09-19T04:12:25.281Z,3.70
2017-09-19T04:13:25.262Z,3.68
2017-09-19T04:14:25.241Z,3.70
2017-09-19T04:15:25.223Z,3.68
2017-09-19T04:16:25.307Z,3.68
2017-09-19T04:17:25.189Z,3.72
2017-09-19T04:18:25.173Z,3.66
2017-09-19T04:19:25.160Z,3.65
2017-09-19T04:20:25.140Z,3.70
2017-09-19T04:21:25.119Z,3.75
2017-09-19T04:22:25.202Z,3.68
2017-09-19T04:23:25.087Z,3.76
2017-09-19T04:24:25.069Z,3.72
2017-09-19T04:25:25.051Z,3.75
2017-09-19T04:26:25.034Z,3.73
2017-09-19T04:27:25.017Z,3.70
2017-09-19T04:28:25.101Z,3.65
2017-09-19T04:29:24.989Z,3.76
2017-09-19T04:30:24.965Z,3.72
2017-09-19T04:31:24.955Z,3.66
2017-09-19T04:32:24.932Z,3.72
2017-09-19T04:33:24.927Z,3.72
2017-09-19T04:34:24.998Z,3.62
2017-09-19T04:35:24.882Z,3.75
2017-09-19T04:36:24.862Z,3.73
2017-09-19T04:37:24.844Z,3.65
2017-09-19T04:38:24.833Z,3.75
2017-09-19T04:39:24.814Z,3.66
2017-09-19T04:40:24.895Z,3.65
2017-09-19T04:41:24.781Z,3.68
2017-09-19T04:42:24.758Z,3.66
2017-09-19T04:43:24.743Z,3.65
2017-09-19T04:44:24.726Z,3.65
2017-09-19T04:45:24.713Z,3.66
2017-09-19T04:46:24.790Z,3.69
2017-09-19T04:47:24.680Z,3.62
2017-09-19T04:48:24.656Z,3.66
2017-09-19T04:49:24.639Z,3.68
2017-09-19T04:50:24.627Z,3.69
2017-09-19T04:51:24.605Z,3.75
2017-09-19T04:52:24.689Z,3.70
2017-09-19T04:53:24.571Z,3.66
2017-09-19T04:54:24.553Z,3.69
2017-09-19T04:55:24.535Z,3.73
2017-09-19T04:56:24.519Z,3.78
2017-09-19T04:57:24.500Z,3.66
2017-09-19T04:58:24.590Z,3.73
2017-09-19T04:59:24.467Z,3.61
2017-09-19T05:00:24.449Z,3.66
2017-09-19T05:01:24.433Z,3.75
2017-09-19T05:02:24.419Z,3.72
2017-09-19T05:03:24.404Z,3.73
2017-09-19T05:04:24.482Z,3.75
2017-09-19T05:05:24.364Z,3.69
2017-09-19T05:06:24.346Z,3.66
2017-09-19T05:07:24.332Z,3.72
2017-09-19T05:08:24.312Z,3.68
2017-09-19T05:09:24.300Z,3.70
2017-09-19T05:10:24.376Z,3.66
2017-09-19T05:11:24.260Z,3.62
2017-09-19T05:12:24.243Z,3.62
2017-09-19T05:13:24.231Z,3.60
2017-09-19T05:14:24.208Z,3.72
2017-09-19T05:15:24.191Z,3.66
2017-09-19T05:16:24.281Z,3.69
2017-09-19T05:17:24.156Z,3.66
2017-09-19T05:18:24.146Z,3.69
2017-09-19T05:19:24.121Z,3.72
2017-09-19T05:20:24.107Z,3.69
2017-09-19T05:21:24.088Z,3.58
2017-09-19T05:22:24.369Z,3.65
2017-09-19T05:23:24.054Z,3.65
2017-09-19T05:24:24.037Z,3.61
2017-09-19T05:25:24.018Z,3.61
2017-09-19T05:26:24.002Z,3.72
2017-09-19T05:27:23.986Z,3.65
2017-09-19T05:28:24.067Z,3.54
2017-09-19T05:29:23.948Z,3.61
2017-09-19T05:30:23.933Z,3.62
2017-09-19T05:31:23.914Z,3.50
2017-09-19T05:32:23.897Z,3.54
2017-09-19T05:33:23.879Z,3.55
2017-09-19T05:34:23.963Z,3.57
2017-09-19T05:35:23.845Z,3.55
2017-09-19T05:36:23.834Z,3.51
2017-09-19T05:37:23.809Z,3.66
2017-09-19T05:38:23.792Z,3.66
2017-09-19T05:39:23.777Z,3.57
2017-09-19T05:40:24.010Z,3.54
2017-09-19T05:41:23.742Z,3.52
2017-09-19T05:42:23.723Z,3.54
2017-09-19T05:43:23.706Z,3.61
2017-09-19T05:44:23.690Z,3.55
2017-09-19T05:45:23.772Z,3.54
2017-09-19T05:46:23.755Z,3.62
2017-09-19T05:47:23.637Z,3.69
2017-09-19T05:48:23.626Z,3.65
2017-09-19T05:49:23.603Z,3.62
2017-09-19T05:50:23.586Z,3.65
2017-09-19T05:51:23.568Z,3.65
2017-09-19T05:52:23.651Z,3.62
2017-09-19T05:53:23.558Z,3.66
2017-09-19T05:54:23.522Z,3.60
2017-09-19T05:55:23.499Z,3.57
2017-09-19T05:56:23.488Z,3.70
2017-09-19T05:57:23.466Z,3.70
2017-09-19T05:58:23.747Z,3.66
2017-09-19T05:59:23.430Z,3.62
2017-09-19T06:00:23.422Z,3.70
2017-09-19T06:01:23.402Z,3.69
2017-09-19T06:02:23.379Z,3.70
2017-09-19T06:03:23.362Z,3.69
2017-09-19T06:04:23.445Z,3.73
2017-09-19T06:05:23.329Z,3.73
2017-09-19T06:06:23.311Z,3.62
2017-09-19T06:07:23.300Z,3.70
2017-09-19T06:08:23.277Z,3.69
2017-09-19T06:09:23.260Z,3.68
2017-09-19T06:10:23.344Z,3.65
2017-09-19T06:11:23.227Z,3.70
2017-09-19T06:12:23.209Z,3.78
2017-09-19T06:13:23.192Z,3.75
2017-09-19T06:14:23.176Z,3.75
2017-09-19T06:15:23.159Z,3.79
2017-09-19T06:16:23.242Z,3.79
2017-09-19T06:17:23.123Z,3.78
2017-09-19T06:18:23.108Z,3.79
2017-09-19T06:19:23.092Z,3.80
2017-09-19T06:20:23.079Z,3.78
2017-09-19T06:21:23.062Z,3.78
2017-09-19T06:22:23.139Z,3.76
2017-09-19T06:23:23.027Z,3.79
2017-09-19T06:24:23.013Z,3.76
2017-09-19T06:25:22.993Z,3.84
2017-09-19T06:26:22.970Z,3.86
2017-09-19T06:27:22.953Z,3.83
2017-09-19T06:28:23.088Z,3.93
2017-09-19T06:29:22.920Z,3.87
2017-09-19T06:30:22.907Z,3.86
2017-09-19T06:31:22.890Z,3.93
2017-09-19T06:32:22.868Z,3.90
2017-09-19T06:33:22.853Z,3.90
2017-09-19T06:34:22.934Z,3.94
2017-09-19T06:35:22.817Z,3.91
2017-09-19T06:36:22.802Z,4.02
2017-09-19T06:37:22.783Z,3.93
2017-09-19T06:38:22.775Z,4.00
2017-09-19T06:39:22.758Z,4.00
2017-09-19T06:40:23.038Z,3.93
2017-09-19T06:41:22.717Z,3.91
2017-09-19T06:42:22.699Z,3.94
2017-09-19T06:43:22.681Z,3.97
2017-09-19T06:44:22.664Z,4.00
2017-09-19T06:45:22.648Z,3.90
2017-09-19T06:46:22.731Z,3.97
2017-09-19T06:47:22.614Z,3.91
2017-09-19T06:48:22.598Z,3.83
2017-09-19T06:49:22.582Z,3.86
2017-09-19T06:50:22.571Z,3.97
2017-09-19T06:51:22.547Z,3.91
2017-09-19T06:52:22.829Z,3.91
2017-09-19T06:53:22.512Z,3.96
2017-09-19T06:54:22.496Z,3.91
2017-09-19T06:55:22.477Z,3.96
2017-09-19T06:56:22.462Z,3.94
2017-09-19T06:57:22.449Z,3.98
2017-09-19T06:58:22.528Z,3.91
2017-09-19T06:59:22.412Z,4.05
2017-09-19T07:00:22.399Z,4.09
2017-09-19T07:01:22.382Z,4.09
2017-09-19T07:02:22.361Z,4.12
2017-09-19T07:03:22.346Z,4.15
2017-09-19T07:04:22.477Z,4.22
2017-09-19T07:05:22.315Z,4.23
2017-09-19T07:06:22.294Z,4.26
2017-09-19T07:07:22.280Z,4.22
2017-09-19T07:08:22.266Z,4.23
2017-09-19T07:09:22.242Z,4.36
2017-09-19T07:10:22.382Z,4.36
2017-09-19T07:11:22.211Z,4.37
2017-09-19T07:12:22.200Z,4.36
2017-09-19T07:13:22.182Z,4.26
2017-09-19T07:14:22.160Z,4.37
2017-09-19T07:15:22.144Z,4.37
2017-09-19T07:16:22.280Z,4.44
2017-09-19T07:17:22.112Z,4.37
2017-09-19T07:18:22.101Z,4.36
2017-09-19T07:19:22.078Z,4.41
2017-09-19T07:20:22.061Z,4.44
2017-09-19T07:21:22.045Z,4.47
2017-09-19T07:22:22.329Z,4.48
2017-09-19T07:23:22.013Z,4.59
2017-09-19T07:24:22.002Z,4.54
2017-09-19T07:25:21.979Z,4.54
2017-09-19T07:26:21.964Z,4.50
2017-09-19T07:27:21.946Z,4.50
2017-09-19T07:28:22.031Z,4.63
2017-09-19T07:29:21.919Z,4.48
2017-09-19T07:30:21.903Z,4.67
2017-09-19T07:31:21.887Z,4.59
2017-09-19T07:32:21.866Z,4.50
2017-09-19T07:33:21.847Z,4.50
2017-09-19T07:34:21.932Z,4.52
2017-09-19T07:35:21.820Z,4.55
2017-09-19T07:36:21.799Z,4.52
2017-09-19T07:37:21.781Z,4.50
2017-09-19T07:38:21.765Z,4.48
2017-09-19T07:39:21.750Z,4.51
2017-09-19T07:40:21.884Z,4.55
2017-09-19T07:41:21.716Z,4.52
2017-09-19T07:42:21.698Z,4.51
2017-09-19T07:43:21.683Z,4.45
2017-09-19T07:44:21.671Z,4.50
2017-09-19T07:45:21.648Z,4.51
2017-09-19T07:46:21.733Z,4.48
2017-09-19T07:47:21.618Z,4.51
2017-09-19T07:48:21.599Z,4.48
2017-09-19T07:49:21.582Z,4.50
2017-09-19T07:50:21.564Z,4.51
2017-09-19T07:51:21.550Z,4.50
2017-09-19T07:52:21.689Z,4.50
2017-09-19T07:53:21.521Z,4.48
2017-09-19T07:54:21.498Z,4.54
2017-09-19T07:55:21.482Z,4.41
2017-09-19T07:56:21.467Z,4.52
2017-09-19T07:57:21.448Z,4.41
2017-09-19T07:58:21.534Z,4.40
2017-09-19T07:59:21.421Z,4.40
2017-09-19T08:00:21.401Z,4.34
2017-09-19T08:01:21.382Z,4.48
2017-09-19T08:02:21.365Z,4.40
2017-09-19T08:03:21.350Z,4.40
2017-09-19T08:04:21.432Z,4.36
2017-09-19T08:05:21.320Z,4.36
2017-09-19T08:06:21.297Z,4.34
2017-09-19T08:07:21.282Z,4.45
2017-09-19T08:08:21.264Z,4.40
2017-09-19T08:09:21.248Z,4.34
2017-09-19T08:10:21.331Z,4.24
2017-09-19T08:11:21.219Z,4.24
2017-09-19T08:12:21.203Z,4.16
2017-09-19T08:13:21.180Z,4.11
2017-09-19T08:14:21.162Z,4.09
2017-09-19T08:15:21.151Z,4.06
2017-09-19T08:16:21.234Z,4.05
2017-09-19T08:17:21.110Z,4.08
2017-09-19T08:18:21.096Z,4.14
2017-09-19T08:19:21.110Z,4.12
2017-09-19T08:20:21.061Z,4.14
2017-09-19T08:21:21.044Z,4.08
2017-09-19T08:22:21.125Z,4.18
2017-09-19T08:23:21.009Z,4.24
2017-09-19T08:24:20.996Z,4.27
2017-09-19T08:25:20.980Z,4.24
2017-09-19T08:26:20.963Z,4.37
2017-09-19T08:27:20.942Z,4.40
2017-09-19T08:28:21.023Z,4.47
2017-09-19T08:29:20.908Z,4.36
2017-09-19T08:30:20.890Z,4.32
2017-09-19T08:31:20.880Z,4.40
2017-09-19T08:32:20.857Z,4.42
2017-09-19T08:33:20.844Z,4.44
2017-09-19T08:34:20.924Z,4.44
2017-09-19T08:35:20.806Z,4.34
2017-09-19T08:36:20.788Z,4.34
2017-09-19T08:37:20.771Z,4.34
2017-09-19T08:38:20.755Z,4.26
2017-09-19T08:39:20.739Z,4.23
2017-09-19T08:40:20.822Z,4.29
2017-09-19T08:41:20.705Z,4.36
2017-09-19T08:42:20.687Z,4.41
2017-09-19T08:43:20.675Z,4.34
2017-09-19T08:44:20.653Z,4.36
2017-09-19T08:45:20.635Z,4.47
2017-09-19T08:46:20.720Z,4.45
2017-09-19T08:47:20.605Z,4.47
2017-09-19T08:48:20.586Z,4.41
2017-09-19T08:49:20.573Z,4.41
2017-09-19T08:50:20.557Z,4.44
2017-09-19T08:51:20.542Z,4.44
2017-09-19T08:52:20.625Z,4.54
2017-09-19T08:53:20.502Z,4.50
2017-09-19T08:54:20.485Z,4.44
2017-09-19T08:55:20.470Z,4.51
2017-09-19T08:56:20.457Z,4.40
2017-09-19T08:57:20.433Z,4.45
2017-09-19T08:58:20.517Z,4.45
2017-09-19T08:59:20.402Z,4.52
2017-09-19T09:00:20.390Z,4.45
2017-09-19T09:01:20.366Z,4.48
2017-09-19T09:02:20.350Z,4.42
2017-09-19T09:03:20.335Z,4.45
2017-09-19T09:04:20.418Z,4.54
2017-09-19T09:05:20.305Z,4.48
2017-09-19T09:06:20.285Z,4.47
2017-09-19T09:07:20.268Z,4.51
2017-09-19T09:08:20.249Z,4.52
2017-09-19T09:09:20.238Z,4.52
2017-09-19T09:10:20.321Z,4.45
2017-09-19T09:11:20.200Z,4.40
2017-09-19T09:12:20.184Z,4.44
2017-09-19T09:13:20.165Z,4.36
2017-09-19T09:14:20.154Z,4.36
2017-09-19T09:15:20.131Z,4.37
2017-09-19T09:16:20.215Z,4.42
2017-09-19T09:17:20.098Z,4.44
2017-09-19T09:18:20.082Z,4.44
2017-09-19T09:19:20.065Z,4.34
2017-09-19T09:20:20.050Z,4.34
2017-09-19T09:21:20.031Z,4.44
2017-09-19T09:22:20.113Z,4.37
2017-09-19T09:23:19.996Z,4.44
2017-09-19T09:24:19.980Z,4.34
2017-09-19T09:25:19.969Z,4.34
2017-09-19T09:26:19.946Z,4.48
2017-09-19T09:27:19.935Z,4.47
2017-09-19T09:28:20.015Z,4.52
2017-09-19T09:29:19.895Z,4.54
2017-09-19T09:30:19.878Z,4.59
2017-09-19T09:31:19.862Z,4.70
2017-09-19T09:32:19.846Z,4.73
2017-09-19T09:33:19.833Z,4.73
2017-09-19T09:34:19.948Z,4.82
2017-09-19T09:35:19.796Z,4.85
2017-09-19T09:36:19.778Z,4.92
2017-09-19T09:37:19.761Z,4.89
2017-09-19T09:38:19.745Z,4.99
2017-09-19T09:39:19.729Z,4.94
2017-09-19T09:40:19.813Z,4.97
2017-09-19T09:41:19.739Z,4.94
2017-09-19T09:42:19.684Z,4.99
2017-09-19T09:43:19.664Z,5.04
2017-09-19T09:44:19.653Z,4.96
2017-09-19T09:45:19.630Z,5.04
2017-09-19T09:46:19.715Z,5.03
2017-09-19T09:47:19.598Z,5.04
2017-09-19T09:48:19.588Z,5.03
2017-09-19T09:49:19.565Z,5.12
2017-09-19T09:50:19.549Z,5.07
2017-09-19T09:51:19.533Z,5.06
2017-09-19T09:52:19.772Z,5.03
2017-09-19T09:53:19.499Z,5.03
2017-09-19T09:54:19.482Z,5.02
2017-09-19T09:55:19.467Z,4.97
2017-09-19T09:56:19.451Z,5.02
2017-09-19T09:57:19.466Z,4.94
2017-09-19T09:58:19.518Z,5.03
2017-09-19T09:59:19.401Z,5.03
2017-09-19T10:00:19.385Z,5.04
2017-09-19T10:01:19.370Z,5.10
2017-09-19T10:02:19.356Z,5.13
2017-09-19T10:03:19.335Z,5.21
2017-09-19T10:04:19.427Z,5.31
2017-09-19T10:05:19.309Z,5.39
2017-09-19T10:06:19.287Z,5.30
2017-09-19T10:07:19.270Z,5.38
2017-09-19T10:08:19.259Z,5.38
2017-09-19T10:09:19.237Z,5.24
2017-09-19T10:10:19.324Z,5.28
2017-09-19T10:11:19.210Z,5.31
2017-09-19T10:12:19.195Z,5.27
2017-09-19T10:13:19.183Z,5.31
2017-09-19T10:14:19.156Z,5.31
2017-09-19T10:15:19.146Z,5.31
2017-09-19T10:16:19.231Z,5.31
2017-09-19T10:17:19.109Z,5.35
2017-09-19T10:18:19.097Z,5.35
2017-09-19T10:19:19.077Z,5.38
2017-09-19T10:20:19.060Z,5.39
2017-09-19T10:21:19.043Z,5.46
2017-09-19T10:22:19.129Z,5.45
2017-09-19T10:23:19.012Z,5.49
2017-09-19T10:24:18.996Z,5.48
2017-09-19T10:25:18.978Z,5.58
2017-09-19T10:26:19.063Z,5.57
2017-09-19T10:27:18.948Z,5.63
2017-09-19T10:28:19.032Z,5.63
2017-09-19T10:29:18.916Z,5.65
2017-09-19T10:30:18.900Z,5.64
2017-09-19T10:31:18.883Z,5.71
2017-09-19T10:32:18.874Z,5.75
2017-09-19T10:33:18.853Z,5.89
2017-09-19T10:34:18.937Z,5.79
2017-09-19T10:35:18.827Z,5.94
2017-09-19T10:36:18.811Z,6.03
2017-09-19T10:37:18.790Z,6.03
2017-09-19T10:38:18.774Z,6.11
2017-09-19T10:39:18.760Z,6.15
2017-09-19T10:40:18.844Z,6.12
2017-09-19T10:41:18.727Z,6.19
2017-09-19T10:42:18.718Z,6.25
2017-09-19T10:43:18.698Z,6.09
2017-09-19T10:44:18.682Z,6.06
2017-09-19T10:45:18.672Z,6.18
2017-09-19T10:46:18.757Z,6.12
2017-09-19T10:47:18.642Z,6.08
2017-09-19T10:48:18.623Z,6.08
2017-09-19T10:49:18.611Z,6.03
2017-09-19T10:50:18.597Z,6.01
2017-09-19T10:51:18.575Z,5.99
2017-09-19T10:52:18.667Z,5.90
2017-09-19T10:53:18.550Z,5.94
2017-09-19T10:54:18.535Z,5.96
2017-09-19T10:55:18.514Z,5.93
2017-09-19T10:56:18.499Z,5.90
2017-09-19T10:57:18.488Z,5.90
2017-09-19T10:58:18.579Z,5.91
2017-09-19T10:59:18.458Z,5.94
2017-09-19T11:00:18.443Z,5.99
2017-09-19T11:01:18.521Z,6.00
2017-09-19T11:02:18.412Z,5.91
2017-09-19T11:03:18.391Z,5.94
2017-09-19T11:04:18.482Z,5.81
2017-09-19T11:05:18.362Z,5.79
2017-09-19T11:06:18.355Z,5.71
2017-09-19T11:07:18.330Z,5.67
2017-09-19T11:08:18.315Z,5.63
2017-09-19T11:09:18.298Z,5.71
2017-09-19T11:10:18.383Z,5.64
2017-09-19T11:11:18.268Z,5.71
2017-09-19T11:12:18.253Z,5.57
2017-09-19T11:13:18.238Z,5.74
2017-09-19T11:14:18.220Z,5.67
2017-09-19T11:15:18.204Z,5.61
2017-09-19T11:16:18.294Z,5.56
2017-09-19T11:17:18.172Z,5.46
2017-09-19T11:18:18.158Z,5.45
2017-09-19T11:19:18.142Z,5.49
2017-09-19T11:20:18.126Z,5.49
2017-09-19T11:21:18.111Z,5.53
2017-09-19T11:22:18.199Z,5.51
2017-09-19T11:23:18.081Z,5.53
2017-09-19T11:24:18.063Z,5.39
2017-09-19T11:25:18.048Z,5.45
2017-09-19T11:26:18.030Z,5.49
2017-09-19T11:27:18.020Z,5.49
2017-09-19T11:28:18.098Z,5.51
2017-09-19T11:29:17.988Z,5.51
2017-09-19T11:30:17.966Z,5.57
2017-09-19T11:31:17.950Z,5.58
2017-09-19T11:32:17.934Z,5.64
2017-09-19T11:33:17.917Z,5.67
2017-09-19T11:34:18.005Z,5.67
2017-09-19T11:35:17.893Z,5.76
2017-09-19T11:36:17.877Z,5.81
2017-09-19T11:37:17.861Z,5.96
2017-09-19T11:38:17.841Z,6.01
2017-09-19T11:39:17.830Z,6.03
2017-09-19T11:40:17.913Z,6.12
2017-09-19T11:41:17.793Z,6.21
2017-09-19T11:42:17.782Z,6.30
2017-09-19T11:43:17.762Z,6.40
2017-09-19T11:44:17.747Z,6.46
2017-09-19T11:45:17.738Z,6.56
2017-09-19T11:46:17.816Z,6.71
2017-09-19T11:47:17.702Z,6.69
2017-09-19T11:48:17.687Z,6.76
2017-09-19T11:49:17.673Z,6.73
2017-09-19T11:50:17.657Z,6.74
2017-09-19T11:51:17.645Z,6.74
2017-09-19T11:52:17.728Z,6.70
2017-09-19T11:53:17.613Z,6.69
2017-09-19T11:54:17.598Z,6.55
2017-09-19T11:55:17.582Z,6.44
2017-09-19T11:56:17.573Z,6.49
2017-09-19T11:57:17.559Z,6.36
2017-09-19T11:58:17.688Z,6.37
2017-09-19T11:59:17.525Z,6.41
2017-09-19T12:00:17.508Z,6.36
2017-09-19T12:01:17.500Z,6.25
2017-09-19T12:02:17.478Z,6.33
2017-09-19T12:03:17.467Z,6.25
2017-09-19T12:04:17.549Z,6.22
2017-09-19T12:05:17.433Z,6.37
2017-09-19T12:06:17.419Z,6.40
2017-09-19T12:07:17.410Z,6.41
2017-09-19T12:08:17.390Z,6.37
2017-09-19T12:09:17.377Z,6.54
2017-09-19T12:10:17.461Z,6.59
2017-09-19T12:11:17.351Z,6.51
2017-09-19T12:12:17.332Z,6.44
2017-09-19T12:13:17.315Z,6.34
2017-09-19T12:14:17.301Z,6.38
2017-09-19T12:15:17.288Z,6.36
2017-09-19T12:16:17.372Z,6.43
2017-09-19T12:17:17.261Z,6.59
2017-09-19T12:18:17.241Z,6.59
2017-09-19T12:19:17.227Z,6.51
2017-09-19T12:20:17.212Z,6.44
2017-09-19T12:21:17.198Z,6.34
2017-09-19T12:22:17.287Z,6.37
2017-09-19T12:23:17.167Z,6.38
2017-09-19T12:24:17.155Z,6.44
2017-09-19T12:25:17.144Z,6.48
2017-09-19T12:26:17.122Z,6.51
2017-09-19T12:27:17.107Z,6.69
2017-09-19T12:28:17.193Z,6.64
2017-09-19T12:29:17.078Z,6.38
2017-09-19T12:30:17.064Z,6.19
2017-09-19T12:31:17.048Z,6.00
2017-09-19T12:32:17.033Z,5.89
2017-09-19T12:33:17.023Z,5.76
2017-09-19T12:34:17.102Z,5.79
2017-09-19T12:35:16.995Z,5.78
2017-09-19T12:36:16.973Z,5.82
2017-09-19T12:37:16.963Z,5.93
2017-09-19T12:38:16.941Z,5.90
2017-09-19T12:39:16.935Z,6.00
2017-09-19T12:40:17.017Z,5.97
2017-09-19T12:41:16.895Z,6.01
2017-09-19T12:42:16.880Z,5.99
2017-09-19T12:43:16.865Z,5.97
2017-09-19T12:44:16.855Z,5.99
2017-09-19T12:45:16.836Z,5.94
2017-09-19T12:46:16.920Z,5.94
2017-09-19T12:47:16.808Z,5.89
2017-09-19T12:48:16.789Z,5.78
2017-09-19T12:49:16.773Z,5.76
2017-09-19T12:50:16.763Z,5.68
2017-09-19T12:51:16.746Z,5.71
2017-09-19T12:52:16.827Z,5.72
2017-09-19T12:53:16.709Z,5.58
2017-09-19T12:54:16.700Z,5.56
2017-09-19T12:55:16.679Z,5.51
2017-09-19T12:56:16.662Z,5.39
2017-09-19T12:57:16.649Z,5.43
2017-09-19T12:58:16.732Z,5.45
2017-09-19T12:59:16.620Z,5.53
2017-09-19T13:00:16.603Z,5.53
2017-09-19T13:01:16.583Z,5.75
2017-09-19T13:02:16.572Z,5.63
2017-09-19T13:03:16.551Z,5.71
2017-09-19T13:04:16.635Z,5.61
2017-09-19T13:05:16.619Z,5.67
2017-09-19T13:06:16.504Z,5.60
2017-09-19T13:07:16.492Z,5.60
2017-09-19T13:08:16.473Z,5.58
2017-09-19T13:09:16.461Z,5.68
2017-09-19T13:10:16.540Z,5.67
2017-09-19T13:11:16.422Z,5.60
2017-09-19T13:12:16.407Z,5.60
2017-09-19T13:13:16.391Z,5.67
2017-09-19T13:14:16.377Z,5.54
2017-09-19T13:15:16.361Z,5.54
2017-09-19T13:16:16.444Z,5.51
2017-09-19T13:17:16.334Z,5.51
2017-09-19T13:18:16.311Z,5.53